Moville, IA (51039)

10:49 AM CST on December 10, 2016 (GMT -0600)
Golf Course Addition | | Change Station
Active Advisory: Winter Weather Advisory

Elev 1188 ft 42.49 °N, 96.06 °W | Updated 8 seconds ago

Snow
Snow
19.4 °F
Feels Like 10 °F
N
7.6
Wind Variable Wind from SSE
Gusts 10.1 mph

Today
High -- | Low -- °F
--% Chance of Precip.
Yesterday
High -- | Low -- °F
Precip. -- in
Pressure 30.34 in
Visibility 4.0 miles
Clouds Few 3600 ft
Overcast 5000 ft
Windchill 10 °F
Dew Point 3 °F
Humidity 48%
Rainfall 0.00 in
Snow Depth Not available.
7:43 AM 4:51 PM
Waxing Gibbous, 85% visible
SPECI KSUX 101645Z 13010KT 4SM HZ FEW036 OVC050 M05/M08 A3034 RMK AO2 SNE45 P0002 T10501078 $
Pressure 30.34 in
Visibility 4.0 miles
Clouds Few 3600 ft
Overcast 5000 ft
Windchill 10 °F
Dew Point 3 °F
Humidity 48%
Rainfall 0.00 in
Snow Depth Not available.
7:43 AM 4:51 PM
Waxing Gibbous, 85% visible
SPECI KSUX 101645Z 13010KT 4SM HZ FEW036 OVC050 M05/M08 A3034 RMK AO2 SNE45 P0002 T10501078 $

10-Day Weather Forecast

Almanac

Astronomy

Dec. 10, 2016 Rise Set
Actual Time
Civil Twilight
Nautical Twilight
Astronomical Twilight
Moon
Length of Visible Light
Length of Day
Tomorrow will be .
, % of the Moon is Illuminated

Today's Extremes

State Highs State Lows

Community

WunderPhotos

Upload Photos

1,956,569 photos uploaded!

WunderBlog® & News

Nearby

Air Quality

  Air Quality AQ Index Pollutant
Not available.

Snow Depth

Station Depth Elevation

Earthquake Activity

City Distance Mag. Time & Date
Minimum magnitude displayed is 2.5.

Coastal Water Temperatures

Place Temperature

Stations

Nearby Weather Stations

Station Location Temp. Windchill Dew Point Humidity Wind Precip. Elev Updated Type
                   

Watches & Warnings

Winter Weather Advisory
Issued: 9:52 AM CST Dec. 10, 2016 – National Weather Service

... Winter Weather Advisory remains in effect until noon CST
Sunday...

* timing... snow will continue through the morning... with a break
possible this afternoon. Light snow will then return tonight.

* Accumulations... snowfall amounts of 1 to 3 inches are possible.

* Visibility... the visibility will fall to a half a mile at
times.

Precautionary/preparedness actions...

A Winter Weather Advisory for snow means that periods of snow
will cause primarily travel difficulties. Be prepared for snow
covered roads and limited visibilities... and use caution while
driving.